createdAt,value
2018-06-25T00:01:57.225Z,11.80
2018-06-25T00:04:25.532Z,11.80
2018-06-25T00:06:53.852Z,11.80
2018-06-25T00:09:22.166Z,11.70
2018-06-25T00:11:50.528Z,11.80
2018-06-25T00:14:18.844Z,11.80
2018-06-25T00:16:47.165Z,11.80
2018-06-25T00:19:15.493Z,11.80
2018-06-25T00:21:43.800Z,11.80
2018-06-25T00:24:12.132Z,11.80
2018-06-25T00:26:40.448Z,11.90
2018-06-25T00:29:08.776Z,11.90
2018-06-25T00:31:37.080Z,11.80
2018-06-25T00:34:05.565Z,11.70
2018-06-25T00:36:33.876Z,11.90
2018-06-25T00:39:02.208Z,11.90
2018-06-25T00:41:30.519Z,11.90
2018-06-25T00:43:58.846Z,11.80
2018-06-25T00:46:27.159Z,11.80
2018-06-25T00:48:55.479Z,11.80
2018-06-25T00:51:23.790Z,11.80
2018-06-25T00:53:52.133Z,11.80
2018-06-25T00:56:20.453Z,11.90
2018-06-25T00:59:00.049Z,11.80
2018-06-25T01:01:28.361Z,11.90
2018-06-25T01:03:56.804Z,11.90
2018-06-25T01:06:25.206Z,11.80
2018-06-25T01:08:53.749Z,11.80
2018-06-25T01:11:22.197Z,11.80
2018-06-25T01:13:50.540Z,11.80
2018-06-25T01:16:18.852Z,11.70
2018-06-25T01:18:47.180Z,11.70
2018-06-25T01:21:15.487Z,11.80
2018-06-25T01:26:11.902Z,11.80
2018-06-25T01:28:40.236Z,11.80
2018-06-25T01:31:08.544Z,11.80
2018-06-25T01:33:36.868Z,11.80
2018-06-25T01:36:05.205Z,11.80
2018-06-25T01:38:33.545Z,11.90
2018-06-25T01:41:01.865Z,11.90
2018-06-25T01:43:30.212Z,12.00
2018-06-25T01:45:58.525Z,11.90
2018-06-25T01:48:26.861Z,11.90
2018-06-25T01:50:55.171Z,11.90
2018-06-25T01:53:23.497Z,11.90
2018-06-25T01:55:51.805Z,11.90
2018-06-25T01:58:20.136Z,11.80
2018-06-25T02:00:48.449Z,11.80
2018-06-25T02:03:16.772Z,11.80
2018-06-25T02:05:45.090Z,11.80
2018-06-25T02:08:13.416Z,11.80
2018-06-25T02:10:41.738Z,11.80
2018-06-25T02:13:10.085Z,11.80
2018-06-25T02:15:38.396Z,11.80
2018-06-25T02:18:06.736Z,11.80
2018-06-25T02:20:35.986Z,11.90
2018-06-25T02:23:04.394Z,11.80
2018-06-25T02:25:32.696Z,11.80
2018-06-25T02:28:01.022Z,11.70
2018-06-25T02:30:29.332Z,11.70
2018-06-25T02:32:57.717Z,11.70
2018-06-25T02:35:25.995Z,11.70
2018-06-25T02:37:54.294Z,11.70
2018-06-25T02:40:22.617Z,11.70
2018-06-25T02:42:50.942Z,11.70
2018-06-25T02:45:19.281Z,11.70
2018-06-25T02:47:47.590Z,11.80
2018-06-25T02:50:15.928Z,11.80
2018-06-25T02:52:44.229Z,11.70
2018-06-25T02:57:40.622Z,11.70
2018-06-25T03:00:08.979Z,11.70
2018-06-25T03:02:37.302Z,11.70
2018-06-25T03:05:05.633Z,11.80
2018-06-25T03:07:33.944Z,11.70
2018-06-25T03:10:02.297Z,11.80
2018-06-25T03:12:30.649Z,11.70
2018-06-25T03:14:58.985Z,11.70
2018-06-25T03:17:27.333Z,11.70
2018-06-25T03:19:55.740Z,11.80
2018-06-25T03:22:24.144Z,11.80
2018-06-25T03:24:52.473Z,11.80
2018-06-25T03:27:20.779Z,11.70
2018-06-25T03:29:49.110Z,11.70
2018-06-25T03:32:17.412Z,11.80
2018-06-25T03:34:45.736Z,11.80
2018-06-25T03:37:14.049Z,11.90
2018-06-25T03:39:42.368Z,11.80
2018-06-25T03:42:10.677Z,11.80
2018-06-25T03:44:39.000Z,11.90
2018-06-25T03:47:07.312Z,11.90
2018-06-25T03:49:35.636Z,11.90
2018-06-25T03:52:03.948Z,12.00
2018-06-25T03:54:32.272Z,12.00
2018-06-25T03:57:00.572Z,12.00
2018-06-25T03:59:28.892Z,11.90
2018-06-25T04:01:57.288Z,12.00
2018-06-25T04:04:25.729Z,11.90
2018-06-25T04:06:54.037Z,11.90
2018-06-25T04:09:22.360Z,12.00
2018-06-25T04:11:50.692Z,12.10
2018-06-25T04:14:19.026Z,12.10
2018-06-25T04:16:47.333Z,12.10
2018-06-25T04:19:15.656Z,12.10
2018-06-25T04:21:43.960Z,12.10
2018-06-25T04:29:08.428Z,12.30
2018-06-25T04:31:36.728Z,12.30
2018-06-25T04:34:05.097Z,12.30
2018-06-25T04:36:33.408Z,12.30
2018-06-25T04:39:01.732Z,12.30
2018-06-25T04:41:30.044Z,12.40
2018-06-25T04:43:58.399Z,12.40
2018-06-25T04:46:26.708Z,12.40
2018-06-25T04:48:55.029Z,12.40
2018-06-25T04:53:51.424Z,12.50
2018-06-25T04:56:19.760Z,12.50
2018-06-25T04:58:48.077Z,12.60
2018-06-25T05:01:16.419Z,12.50
2018-06-25T05:03:44.728Z,12.40
2018-06-25T05:06:13.069Z,12.40
2018-06-25T05:08:41.380Z,12.40
2018-06-25T05:11:09.728Z,12.30
2018-06-25T05:13:38.049Z,12.30
2018-06-25T05:16:06.636Z,12.30
2018-06-25T05:18:34.940Z,12.30
2018-06-25T05:21:03.327Z,12.30
2018-06-25T05:23:31.760Z,12.30
2018-06-25T05:26:00.073Z,12.20
2018-06-25T05:28:28.388Z,12.10
2018-06-25T05:30:56.712Z,12.10
2018-06-25T05:33:25.028Z,12.20
2018-06-25T05:35:53.360Z,12.30
2018-06-25T05:38:21.663Z,12.30
2018-06-25T05:40:50.009Z,12.30
2018-06-25T05:43:18.313Z,12.30
2018-06-25T05:45:46.640Z,12.30
2018-06-25T05:48:14.948Z,12.40
2018-06-25T05:50:43.281Z,12.50
2018-06-25T05:53:11.612Z,12.50
2018-06-25T05:55:39.940Z,12.50
2018-06-25T05:58:08.305Z,12.60
2018-06-25T06:00:36.635Z,12.60
2018-06-25T06:03:04.962Z,12.60
2018-06-25T06:05:33.289Z,12.50
2018-06-25T06:08:01.600Z,12.50
2018-06-25T06:10:29.936Z,12.60
2018-06-25T06:12:58.263Z,12.80
2018-06-25T06:15:26.592Z,12.90
2018-06-25T06:17:54.902Z,13.00
2018-06-25T06:20:23.245Z,13.00
2018-06-25T06:22:51.553Z,12.90
2018-06-25T06:25:19.913Z,13.10
2018-06-25T06:27:48.233Z,13.00
2018-06-25T06:32:44.621Z,13.10
2018-06-25T06:35:12.961Z,13.30
2018-06-25T06:37:41.284Z,13.20
2018-06-25T06:40:09.669Z,13.00
2018-06-25T06:42:37.948Z,13.10
2018-06-25T06:45:06.274Z,13.10
2018-06-25T06:47:34.584Z,12.90
2018-06-25T06:50:02.925Z,13.00
2018-06-25T06:52:31.229Z,13.00
2018-06-25T06:54:59.585Z,12.90
2018-06-25T06:57:27.916Z,13.00
2018-06-25T06:59:56.243Z,13.20
2018-06-25T07:02:24.618Z,13.20
2018-06-25T07:04:52.932Z,13.30
2018-06-25T07:07:21.269Z,13.20
2018-06-25T07:09:49.583Z,13.10
2018-06-25T07:12:17.936Z,13.30
2018-06-25T07:14:46.248Z,13.20
2018-06-25T07:17:14.585Z,13.40
2018-06-25T07:19:42.964Z,13.70
2018-06-25T07:22:11.285Z,14.00
2018-06-25T07:24:39.588Z,13.90
2018-06-25T07:27:07.904Z,13.90
2018-06-25T07:29:36.204Z,13.90
2018-06-25T07:32:04.562Z,14.00
2018-06-25T07:34:32.865Z,13.90
2018-06-25T07:37:01.228Z,13.90
2018-06-25T07:39:29.540Z,14.00
2018-06-25T07:41:57.872Z,14.00
2018-06-25T07:44:26.182Z,13.90
2018-06-25T07:46:54.508Z,13.90
2018-06-25T07:49:22.816Z,14.00
2018-06-25T07:51:51.145Z,14.10
2018-06-25T07:54:19.466Z,14.00
2018-06-25T07:56:47.793Z,14.20
2018-06-25T07:59:16.109Z,14.20
2018-06-25T08:01:44.436Z,14.30
2018-06-25T08:04:12.741Z,14.00
2018-06-25T08:06:41.064Z,14.00
2018-06-25T08:09:10.332Z,14.10
2018-06-25T08:14:06.728Z,14.20
2018-06-25T08:16:35.755Z,14.20
2018-06-25T08:19:04.084Z,14.20
2018-06-25T08:21:32.408Z,14.30
2018-06-25T08:24:00.764Z,14.30
2018-06-25T08:26:29.100Z,14.50
2018-06-25T08:28:57.474Z,14.70
2018-06-25T08:31:25.808Z,14.80
2018-06-25T08:33:54.142Z,15.00
2018-06-25T08:36:22.489Z,14.80
2018-06-25T08:38:50.828Z,14.80
2018-06-25T08:41:19.160Z,14.90
2018-06-25T08:43:47.464Z,14.80
2018-06-25T08:46:15.825Z,15.00
2018-06-25T08:48:44.111Z,15.20
2018-06-25T08:51:12.432Z,15.50
2018-06-25T08:53:40.736Z,15.60
2018-06-25T08:56:09.052Z,15.60
2018-06-25T08:58:37.357Z,15.30
2018-06-25T09:01:05.677Z,15.40
2018-06-25T09:03:33.993Z,15.60
2018-06-25T09:06:02.345Z,15.20
2018-06-25T09:08:30.665Z,15.30
2018-06-25T09:10:58.964Z,15.20
2018-06-25T09:13:27.312Z,15.10
2018-06-25T09:15:55.625Z,15.40
2018-06-25T09:18:23.948Z,15.50
2018-06-25T09:20:52.245Z,15.50
2018-06-25T09:23:20.565Z,15.50
2018-06-25T09:25:48.884Z,15.50
2018-06-25T09:28:17.200Z,15.60
2018-06-25T09:30:45.500Z,15.70
2018-06-25T09:33:13.816Z,15.60
2018-06-25T09:35:42.124Z,15.50
2018-06-25T09:38:10.448Z,15.50
2018-06-25T09:40:38.780Z,15.90
2018-06-25T09:43:07.104Z,16.20
2018-06-25T09:45:35.404Z,16.50
2018-06-25T09:48:03.728Z,16.70
2018-06-25T09:50:32.085Z,16.70
2018-06-25T09:53:00.416Z,16.00
2018-06-25T09:55:28.717Z,15.70
2018-06-25T10:00:30.514Z,15.70
2018-06-25T10:02:59.228Z,15.90
2018-06-25T10:05:27.530Z,15.90
2018-06-25T10:07:55.920Z,15.60
2018-06-25T10:10:24.222Z,15.90
2018-06-25T10:12:52.559Z,16.00
2018-06-25T10:15:20.865Z,16.10
2018-06-25T10:17:49.181Z,16.00
2018-06-25T10:20:17.484Z,16.10
2018-06-25T10:22:45.804Z,16.30
2018-06-25T10:25:14.117Z,16.40
2018-06-25T10:27:42.445Z,16.50
2018-06-25T10:30:10.753Z,16.70
2018-06-25T10:32:39.085Z,16.90
2018-06-25T10:35:07.386Z,17.00
2018-06-25T10:37:35.710Z,17.20
2018-06-25T10:40:04.043Z,17.50
2018-06-25T10:42:32.422Z,17.30
2018-06-25T10:45:00.712Z,17.40
2018-06-25T10:47:29.040Z,16.80
2018-06-25T10:49:57.332Z,16.80
2018-06-25T10:52:25.652Z,16.90
2018-06-25T10:54:53.952Z,17.00
2018-06-25T10:57:22.282Z,17.10
2018-06-25T10:59:50.708Z,17.00
2018-06-25T11:02:18.920Z,17.20
2018-06-25T11:04:47.217Z,17.50
2018-06-25T11:07:15.653Z,17.60
2018-06-25T11:09:43.867Z,17.70
2018-06-25T11:12:12.196Z,17.90
2018-06-25T11:14:40.500Z,17.90
2018-06-25T11:17:08.817Z,17.80
2018-06-25T11:19:37.128Z,17.80
2018-06-25T11:22:05.456Z,18.10
2018-06-25T11:24:33.761Z,18.20
2018-06-25T11:27:02.163Z,18.10
2018-06-25T11:29:30.400Z,18.50
2018-06-25T11:31:58.701Z,18.70
2018-06-25T11:34:27.066Z,18.80
2018-06-25T11:36:55.341Z,19.00
2018-06-25T11:39:23.648Z,19.10
2018-06-25T11:41:51.993Z,18.70
2018-06-25T11:44:20.336Z,18.70
2018-06-25T11:46:48.632Z,18.80
2018-06-25T11:49:16.945Z,19.00
2018-06-25T11:51:45.240Z,19.00
2018-06-25T11:54:13.570Z,18.50
2018-06-25T11:56:41.876Z,18.10
2018-06-25T11:59:10.188Z,18.00
2018-06-25T12:01:38.539Z,17.60
2018-06-25T12:04:06.893Z,17.70
2018-06-25T12:06:35.168Z,17.70
2018-06-25T12:09:03.941Z,17.80
2018-06-25T12:11:32.252Z,18.00
2018-06-25T12:14:00.626Z,17.90
2018-06-25T12:16:28.917Z,18.00
2018-06-25T12:18:57.250Z,17.90
2018-06-25T12:21:25.568Z,17.80
2018-06-25T12:23:53.880Z,17.90
2018-06-25T12:26:22.269Z,18.00
2018-06-25T12:28:50.664Z,17.60
2018-06-25T12:31:18.958Z,17.90
2018-06-25T12:33:47.278Z,18.10
2018-06-25T12:36:15.584Z,18.10
2018-06-25T12:38:44.208Z,18.10
2018-06-25T12:41:12.501Z,18.40
2018-06-25T12:43:40.817Z,18.50
2018-06-25T12:46:09.259Z,18.70
2018-06-25T12:48:37.768Z,19.20
2018-06-25T12:51:06.068Z,19.10
2018-06-25T12:53:34.457Z,19.00
2018-06-25T12:56:02.754Z,18.80
2018-06-25T12:58:31.072Z,18.60
2018-06-25T13:00:59.369Z,18.70
2018-06-25T13:03:27.680Z,18.80
2018-06-25T13:05:55.980Z,19.10
2018-06-25T13:08:24.296Z,19.00
2018-06-25T13:10:52.690Z,18.80
2018-06-25T13:13:20.977Z,18.80
2018-06-25T13:15:49.276Z,18.80
2018-06-25T13:18:17.603Z,19.00
2018-06-25T13:20:46.064Z,19.10
2018-06-25T13:23:14.302Z,19.00
2018-06-25T13:25:42.687Z,19.00
2018-06-25T13:28:11.029Z,18.80
2018-06-25T13:30:39.324Z,18.80
2018-06-25T13:33:07.676Z,18.80
2018-06-25T13:35:35.968Z,18.80
2018-06-25T13:38:04.296Z,18.70
2018-06-25T13:40:32.632Z,19.00
2018-06-25T13:43:00.930Z,18.80
2018-06-25T13:45:29.392Z,19.10
2018-06-25T13:47:57.672Z,19.10
2018-06-25T13:50:26.008Z,18.80
2018-06-25T13:52:54.326Z,19.00
2018-06-25T13:55:22.648Z,19.20
2018-06-25T13:57:50.976Z,19.40
2018-06-25T14:00:19.299Z,19.60
2018-06-25T14:02:47.587Z,19.40
2018-06-25T14:05:15.902Z,19.40
2018-06-25T14:07:44.202Z,19.50
2018-06-25T14:10:12.524Z,19.50
2018-06-25T14:12:40.846Z,19.70
2018-06-25T14:15:09.173Z,19.70
2018-06-25T14:17:38.280Z,19.60
2018-06-25T14:20:06.664Z,19.80
2018-06-25T14:22:34.974Z,19.80
2018-06-25T14:25:03.348Z,19.80
2018-06-25T14:27:37.188Z,19.90
2018-06-25T14:30:10.973Z,19.70
2018-06-25T14:32:39.263Z,19.90
2018-06-25T14:35:13.176Z,19.90
2018-06-25T14:37:41.569Z,20.10
2018-06-25T14:40:09.933Z,20.00
2018-06-25T14:42:38.250Z,20.20
2018-06-25T14:45:06.728Z,20.20
2018-06-25T14:47:34.984Z,20.00
2018-06-25T14:50:03.296Z,20.20
2018-06-25T14:52:31.643Z,20.50
2018-06-25T14:54:59.969Z,20.60
2018-06-25T14:57:27.592Z,20.50
2018-06-25T14:59:55.216Z,20.70
2018-06-25T15:02:22.815Z,20.70
2018-06-25T15:04:50.444Z,20.70
2018-06-25T15:07:18.045Z,20.20
2018-06-25T15:09:45.655Z,20.00
2018-06-25T15:12:13.308Z,20.10
2018-06-25T15:14:40.932Z,20.40
2018-06-25T15:17:08.535Z,20.50
2018-06-25T15:19:36.164Z,20.40
2018-06-25T15:22:03.773Z,20.30
2018-06-25T15:24:31.392Z,20.50
2018-06-25T15:26:58.992Z,20.60
2018-06-25T15:29:26.615Z,20.70
2018-06-25T15:31:54.264Z,20.70
2018-06-25T15:34:21.967Z,20.70
2018-06-25T15:36:49.581Z,20.60
2018-06-25T15:39:17.204Z,20.50
2018-06-25T15:41:44.812Z,20.50
2018-06-25T15:44:12.432Z,20.50
2018-06-25T15:46:40.033Z,20.30
2018-06-25T15:49:07.631Z,20.40
2018-06-25T15:51:35.247Z,20.40
2018-06-25T15:54:02.868Z,20.30
2018-06-25T15:56:30.496Z,20.10
2018-06-25T15:58:58.091Z,20.70
2018-06-25T16:01:25.721Z,21.70
2018-06-25T16:03:53.315Z,21.70
2018-06-25T16:06:20.931Z,20.90
2018-06-25T16:08:48.536Z,21.00
2018-06-25T16:11:16.175Z,21.70
2018-06-25T16:13:43.772Z,21.80
2018-06-25T16:16:11.403Z,21.80
2018-06-25T16:18:39.008Z,21.20
2018-06-25T16:21:06.633Z,20.70
2018-06-25T16:23:34.234Z,20.70
2018-06-25T16:26:01.944Z,20.70
2018-06-25T16:28:29.555Z,20.60
2018-06-25T16:33:24.507Z,20.50
2018-06-25T16:35:52.120Z,20.30
2018-06-25T16:38:19.752Z,20.50
2018-06-25T16:40:47.543Z,20.40
2018-06-25T16:43:15.096Z,20.30
2018-06-25T16:45:42.976Z,20.00
2018-06-25T16:48:10.584Z,19.80
2018-06-25T16:50:38.203Z,20.00
2018-06-25T16:53:05.799Z,19.90
2018-06-25T16:55:34.144Z,20.10
2018-06-25T16:58:02.449Z,20.00
2018-06-25T17:00:30.870Z,19.80
2018-06-25T17:02:59.187Z,19.80
2018-06-25T17:05:27.621Z,20.30
2018-06-25T17:07:55.916Z,20.40
2018-06-25T17:10:24.235Z,20.20
2018-06-25T17:12:52.652Z,19.90
2018-06-25T17:15:20.964Z,19.80
2018-06-25T17:17:49.268Z,20.10
2018-06-25T17:20:17.603Z,21.00
2018-06-25T17:22:45.904Z,21.70
2018-06-25T17:25:14.290Z,21.90
2018-06-25T17:27:42.686Z,21.30
2018-06-25T17:30:11.000Z,20.50
2018-06-25T17:32:39.301Z,20.30
2018-06-25T17:35:07.684Z,20.20
2018-06-25T17:37:35.972Z,20.10
2018-06-25T17:40:04.838Z,19.90
2018-06-25T17:42:33.171Z,19.70
2018-06-25T17:45:01.505Z,19.60
2018-06-25T17:47:29.898Z,20.10
2018-06-25T17:49:58.208Z,20.80
2018-06-25T17:52:26.536Z,21.20
2018-06-25T17:54:54.853Z,21.40
2018-06-25T17:57:23.167Z,21.70
2018-06-25T17:59:51.488Z,21.60
2018-06-25T18:02:19.807Z,20.90
2018-06-25T18:04:48.174Z,20.30
2018-06-25T18:07:16.500Z,20.40
2018-06-25T18:09:44.797Z,20.40
2018-06-25T18:12:13.140Z,20.50
2018-06-25T18:14:41.443Z,20.70
2018-06-25T18:17:09.758Z,20.70
2018-06-25T18:19:38.052Z,20.70
2018-06-25T18:22:06.420Z,20.70
2018-06-25T18:24:34.726Z,20.90
2018-06-25T18:27:03.040Z,21.10
2018-06-25T18:29:31.625Z,21.00
2018-06-25T18:34:28.000Z,20.30
2018-06-25T18:36:56.337Z,19.80
2018-06-25T18:39:24.649Z,19.50
2018-06-25T18:41:52.971Z,19.30
2018-06-25T18:44:21.346Z,19.00
2018-06-25T18:46:49.678Z,18.80
2018-06-25T18:49:18.161Z,18.60
2018-06-25T18:51:46.584Z,18.20
2018-06-25T18:54:15.162Z,17.90
2018-06-25T18:56:43.476Z,17.70
2018-06-25T18:59:12.395Z,17.40
2018-06-25T19:01:40.781Z,17.20
2018-06-25T19:04:09.116Z,17.00
2018-06-25T19:06:37.488Z,16.90
2018-06-25T19:09:08.333Z,16.80
2018-06-25T19:11:36.664Z,16.70
2018-06-25T19:14:05.115Z,16.60
2018-06-25T19:19:01.972Z,16.40
2018-06-25T19:21:30.292Z,16.30
2018-06-25T19:23:58.616Z,16.30
2018-06-25T19:26:26.951Z,16.20
2018-06-25T19:28:55.260Z,16.20
2018-06-25T19:31:23.592Z,16.10
2018-06-25T19:33:51.901Z,16.10
2018-06-25T19:36:20.236Z,16.00
2018-06-25T19:38:48.548Z,16.10
2018-06-25T19:41:16.860Z,16.10
2018-06-25T19:43:45.160Z,16.10
2018-06-25T19:46:13.480Z,16.10
2018-06-25T19:48:41.779Z,16.10
2018-06-25T19:51:10.104Z,16.10
2018-06-25T19:53:38.407Z,16.10
2018-06-25T19:56:06.756Z,16.10
2018-06-25T19:58:35.084Z,16.10
2018-06-25T20:01:03.408Z,16.10
2018-06-25T20:03:31.740Z,16.00
2018-06-25T20:06:00.123Z,15.90
2018-06-25T20:08:28.449Z,15.80
2018-06-25T20:10:56.816Z,15.80
2018-06-25T20:15:53.272Z,16.00
2018-06-25T20:18:21.628Z,16.20
2018-06-25T20:20:49.932Z,16.20
2018-06-25T20:23:18.251Z,16.20
2018-06-25T20:28:14.645Z,16.00
2018-06-25T20:30:42.951Z,15.90
2018-06-25T20:33:11.272Z,15.80
2018-06-25T20:35:39.589Z,15.70
2018-06-25T20:38:09.128Z,15.60
2018-06-25T20:40:37.576Z,15.50
2018-06-25T20:43:05.948Z,15.60
2018-06-25T20:45:34.252Z,15.60
2018-06-25T20:48:02.580Z,15.60
2018-06-25T20:50:31.168Z,15.60
2018-06-25T20:52:59.493Z,15.50
2018-06-25T20:55:27.865Z,15.50
2018-06-25T21:00:24.331Z,15.40
2018-06-25T21:02:52.672Z,15.40
2018-06-25T21:05:20.997Z,15.40
2018-06-25T21:07:49.361Z,15.40
2018-06-25T21:10:17.677Z,15.40
2018-06-25T21:12:46.024Z,15.40
2018-06-25T21:15:14.341Z,15.50
2018-06-25T21:17:42.776Z,15.40
2018-06-25T21:20:11.080Z,15.50
2018-06-25T21:22:39.408Z,15.60
2018-06-25T21:25:07.716Z,15.60
2018-06-25T21:27:36.062Z,15.50
2018-06-25T21:30:04.600Z,15.50
2018-06-25T21:32:32.933Z,15.40
2018-06-25T21:35:01.240Z,15.40
2018-06-25T21:37:29.565Z,15.30
2018-06-25T21:39:57.885Z,15.40
2018-06-25T21:42:26.211Z,15.30
2018-06-25T21:44:54.532Z,15.30
2018-06-25T21:47:22.867Z,15.30
2018-06-25T21:49:51.185Z,15.30
2018-06-25T21:52:19.529Z,15.20
2018-06-25T21:54:47.837Z,15.10
2018-06-25T21:57:16.164Z,15.10
2018-06-25T21:59:44.520Z,15.10
2018-06-25T22:02:12.846Z,15.10
2018-06-25T22:04:41.169Z,15.10
2018-06-25T22:07:09.501Z,15.10
2018-06-25T22:09:37.800Z,15.10
2018-06-25T22:12:06.455Z,15.00
2018-06-25T22:14:34.789Z,15.10
2018-06-25T22:17:03.126Z,15.10
2018-06-25T22:19:31.448Z,15.10
2018-06-25T22:21:59.759Z,15.20
2018-06-25T22:24:28.076Z,15.20
2018-06-25T22:26:56.384Z,15.10
2018-06-25T22:29:24.713Z,15.10
2018-06-25T22:31:53.026Z,15.00
2018-06-25T22:34:21.360Z,14.90
2018-06-25T22:36:49.688Z,14.90
2018-06-25T22:39:18.017Z,14.80
2018-06-25T22:41:46.324Z,14.80
2018-06-25T22:44:14.927Z,14.80
2018-06-25T22:46:44.039Z,14.80
2018-06-25T22:49:12.404Z,14.80
2018-06-25T22:51:40.711Z,14.80
2018-06-25T22:54:09.229Z,14.90
2018-06-25T22:56:37.540Z,14.90
2018-06-25T22:59:06.324Z,15.00
2018-06-25T23:01:34.629Z,15.00
2018-06-25T23:04:02.948Z,14.90
2018-06-25T23:06:31.321Z,14.90
2018-06-25T23:08:59.649Z,14.80
2018-06-25T23:11:27.968Z,14.80
2018-06-25T23:13:56.297Z,14.80
2018-06-25T23:16:24.600Z,14.80
2018-06-25T23:18:52.934Z,14.90
2018-06-25T23:21:21.257Z,14.90
2018-06-25T23:23:49.584Z,14.90
2018-06-25T23:26:17.905Z,14.80
2018-06-25T23:28:46.238Z,14.70
2018-06-25T23:31:14.545Z,14.80
2018-06-25T23:33:42.873Z,14.70
2018-06-25T23:38:39.252Z,14.50
2018-06-25T23:41:07.572Z,14.70
2018-06-25T23:43:35.909Z,14.70
2018-06-25T23:46:04.219Z,14.60
2018-06-25T23:48:32.551Z,14.30
2018-06-25T23:51:00.860Z,14.20
2018-06-25T23:53:29.190Z,14.20
2018-06-25T23:55:57.496Z,14.10
2018-06-25T23:58:25.816Z,14.30
